Time;durP1;ratioP1;P1;durP2;ratioP2;P2;SDS_P1;SDS_P2;PMS_P1;PMS_P2;Temp;Humidity;BMP_temperature;BMP_pressure;BME280_temperature;BME280_humidity;BME280_pressure;Samples;Min_cycle;Max_cycle;Signal;HPM_P1;HPM_P2
2023/12/26 00:00:45;;;;;;;;;;;17.80;65.90;;;;;;5058987;28;1554;-67
2023/12/26 00:03:11;;;;;;;;;;;17.80;65.90;;;;;;5055236;28;1646;-68
2023/12/26 00:05:39;;;;;;;;;;;17.80;66.70;;;;;;5057876;28;1902;-68
2023/12/26 00:08:06;;;;;;;;;;;17.80;65.90;;;;;;5058152;28;1684;-68
2023/12/26 00:10:32;;;;;;;;;;;17.80;66.00;;;;;;5057997;28;1455;-67
2023/12/26 00:12:59;;;;;;;;;;;17.80;65.90;;;;;;5091030;28;1516;-68
2023/12/26 00:15:25;;;;;;;;;;;17.80;66.00;;;;;;5061543;28;1345;-69
2023/12/26 00:17:51;;;;;;;;;;;17.80;66.00;;;;;;5093148;28;1599;-69
2023/12/26 00:20:17;;;;;;;;;;;17.80;66.00;;;;;;5056901;28;1387;-71
2023/12/26 00:22:42;;;;;;;;;;;17.80;66.00;;;;;;5057719;28;1553;-70
2023/12/26 00:25:08;;;;;;;;;;;17.80;66.00;;;;;;5091676;28;1926;-66
2023/12/26 00:27:34;;;;;;;;;;;17.80;66.00;;;;;;5055613;28;1159;-69
2023/12/26 00:29:59;;;;;;;;;;;17.80;66.00;;;;;;5090523;28;1565;-67
2023/12/26 00:32:25;;;;;;;;;;;17.80;66.00;;;;;;5059009;28;1251;-68
2023/12/26 00:34:50;;;;;;;;;;;17.80;66.00;;;;;;5058138;28;1248;-67
2023/12/26 00:37:16;;;;;;;;;;;17.80;66.00;;;;;;5060865;28;1244;-67
2023/12/26 00:39:42;;;;;;;;;;;17.80;66.00;;;;;;5058021;28;1116;-68
2023/12/26 00:42:07;;;;;;;;;;;17.80;66.00;;;;;;5062061;28;1358;-67
2023/12/26 00:44:33;;;;;;;;;;;17.80;66.00;;;;;;5056451;28;1226;-67
2023/12/26 00:46:58;;;;;;;;;;;17.80;66.00;;;;;;5054613;28;1926;-66
2023/12/26 00:49:24;;;;;;;;;;;17.80;66.00;;;;;;5058283;28;1344;-68
2023/12/26 00:51:49;;;;;;;;;;;17.80;66.00;;;;;;5060036;28;1272;-69
2023/12/26 00:54:15;;;;;;;;;;;17.80;66.10;;;;;;5057575;28;1752;-67
2023/12/26 00:56:40;;;;;;;;;;;17.80;66.10;;;;;;5057780;28;1339;-66
2023/12/26 00:59:06;;;;;;;;;;;17.80;66.10;;;;;;5056242;28;1599;-69
2023/12/26 01:01:31;;;;;;;;;;;17.80;66.10;;;;;;5055467;28;1386;-70
2023/12/26 01:03:57;;;;;;;;;;;17.80;66.10;;;;;;5055945;28;1653;-68
2023/12/26 01:06:22;;;;;;;;;;;17.80;66.10;;;;;;5055125;28;1961;-69
2023/12/26 01:08:48;;;;;;;;;;;17.80;66.10;;;;;;5057993;28;1318;-68
2023/12/26 01:11:13;;;;;;;;;;;17.80;66.10;;;;;;5056574;28;1383;-68
2023/12/26 01:13:39;;;;;;;;;;;17.80;66.10;;;;;;5090738;28;1288;-68
2023/12/26 01:16:05;;;;;;;;;;;17.80;66.10;;;;;;5054051;28;1438;-69
2023/12/26 01:18:31;;;;;;;;;;;17.80;66.20;;;;;;5058217;28;1583;-69
2023/12/26 01:20:56;;;;;;;;;;;17.80;66.10;;;;;;5057652;28;1287;-68
2023/12/26 01:23:22;;;;;;;;;;;17.80;66.10;;;;;;5054086;28;1161;-67
2023/12/26 01:25:47;;;;;;;;;;;17.70;66.10;;;;;;5057017;28;1991;-68
2023/12/26 01:28:13;;;;;;;;;;;17.70;66.10;;;;;;5055901;28;1159;-68
2023/12/26 01:30:40;;;;;;;;;;;17.80;66.20;;;;;;5057529;28;1376;-66
2023/12/26 01:33:09;;;;;;;;;;;17.80;66.20;;;;;;5058200;28;1515;-67
2023/12/26 01:35:34;;;;;;;;;;;17.70;66.10;;;;;;5057144;28;1033;-68
2023/12/26 01:38:00;;;;;;;;;;;17.80;66.20;;;;;;5087043;28;1227;-68
2023/12/26 01:40:25;;;;;;;;;;;17.70;66.10;;;;;;5058449;28;1390;-67
2023/12/26 01:42:51;;;;;;;;;;;17.70;66.10;;;;;;5062160;28;1038;-68
2023/12/26 01:45:16;;;;;;;;;;;17.70;66.10;;;;;;5096144;28;1898;-65
2023/12/26 01:47:43;;;;;;;;;;;17.70;66.10;;;;;;5089819;28;1043;-65
2023/12/26 01:50:08;;;;;;;;;;;17.80;66.20;;;;;;5063465;28;1308;-68
2023/12/26 01:52:35;;;;;;;;;;;17.70;66.20;;;;;;5062177;28;1569;-68
2023/12/26 01:55:01;;;;;;;;;;;17.80;66.30;;;;;;5063045;28;1453;-69
2023/12/26 01:57:27;;;;;;;;;;;17.70;66.10;;;;;;5074459;28;1226;-67
2023/12/26 01:59:52;;;;;;;;;;;17.80;66.30;;;;;;5094105;28;1280;-67
2023/12/26 02:02:18;;;;;;;;;;;17.70;66.10;;;;;;5060041;28;1351;-68
2023/12/26 02:04:43;;;;;;;;;;;17.70;66.10;;;;;;5092000;28;1532;-67
2023/12/26 02:07:09;;;;;;;;;;;17.70;66.20;;;;;;5061840;28;1906;-66
2023/12/26 02:09:34;;;;;;;;;;;17.80;66.20;;;;;;5063672;28;1464;-67
2023/12/26 02:12:00;;;;;;;;;;;17.70;66.20;;;;;;5062690;28;1667;-67
2023/12/26 02:14:25;;;;;;;;;;;17.70;66.20;;;;;;5060212;28;1492;-69
2023/12/26 02:16:51;;;;;;;;;;;17.70;66.90;;;;;;5094900;28;1486;-66
2023/12/26 02:19:16;;;;;;;;;;;17.80;66.20;;;;;;5093533;28;1624;-67
2023/12/26 02:21:42;;;;;;;;;;;17.70;66.20;;;;;;5092509;28;1460;-69
2023/12/26 02:24:07;;;;;;;;;;;17.70;66.20;;;;;;5061739;28;1465;-65
2023/12/26 02:26:33;;;;;;;;;;;17.70;66.20;;;;;;5058923;28;1914;-66
2023/12/26 02:29:00;;;;;;;;;;;17.70;66.20;;;;;;5062924;28;1448;-65
2023/12/26 02:31:27;;;;;;;;;;;17.70;66.20;;;;;;5061587;28;1433;-65
2023/12/26 02:33:52;;;;;;;;;;;17.70;66.20;;;;;;5060440;28;1580;-67
2023/12/26 02:36:18;;;;;;;;;;;17.70;66.20;;;;;;5059939;28;1448;-69
2023/12/26 02:38:44;;;;;;;;;;;17.70;66.20;;;;;;5092281;28;1553;-67
2023/12/26 02:41:09;;;;;;;;;;;17.70;66.30;;;;;;5059113;28;1375;-68
2023/12/26 02:43:35;;;;;;;;;;;17.80;66.30;;;;;;5058888;28;1554;-67
2023/12/26 02:46:00;;;;;;;;;;;17.80;66.30;;;;;;5057870;28;1902;-70
2023/12/26 02:48:26;;;;;;;;;;;17.70;66.30;;;;;;5059926;28;1161;-69
2023/12/26 02:50:53;;;;;;;;;;;17.70;66.20;;;;;;5060523;28;1538;-68
2023/12/26 02:53:18;;;;;;;;;;;17.70;66.30;;;;;;5074462;28;1270;-68
2023/12/26 02:55:44;;;;;;;;;;;17.70;66.20;;;;;;5060095;28;1348;-67
2023/12/26 02:58:09;;;;;;;;;;;17.70;66.30;;;;;;5063001;28;1723;-68
2023/12/26 03:00:35;;;;;;;;;;;17.70;66.30;;;;;;5059076;28;1307;-69
2023/12/26 03:03:00;;;;;;;;;;;17.70;66.30;;;;;;5091976;28;1665;-70
2023/12/26 03:05:26;;;;;;;;;;;17.70;66.20;;;;;;5059634;28;1902;-68
2023/12/26 03:07:51;;;;;;;;;;;17.70;66.30;;;;;;5065085;28;1644;-68
2023/12/26 03:10:17;;;;;;;;;;;17.70;66.30;;;;;;5060995;28;1415;-69
2023/12/26 03:12:42;;;;;;;;;;;17.70;66.30;;;;;;5059374;28;1469;-70
2023/12/26 03:15:08;;;;;;;;;;;17.70;66.30;;;;;;5061703;28;1389;-69
2023/12/26 03:17:34;;;;;;;;;;;17.70;66.30;;;;;;5094156;28;1363;-68
2023/12/26 03:19:59;;;;;;;;;;;17.70;66.30;;;;;;5092511;28;1516;-68
2023/12/26 03:22:25;;;;;;;;;;;17.70;66.30;;;;;;5062201;28;1530;-67
2023/12/26 03:24:50;;;;;;;;;;;17.70;66.30;;;;;;5060485;28;1533;-67
2023/12/26 03:27:15;;;;;;;;;;;17.70;66.30;;;;;;5059860;28;1251;-69
2023/12/26 03:29:41;;;;;;;;;;;17.70;66.30;;;;;;5058502;28;1938;-68
2023/12/26 03:32:08;;;;;;;;;;;17.70;66.30;;;;;;5062911;28;1339;-68
2023/12/26 03:34:33;;;;;;;;;;;17.70;66.30;;;;;;5059581;28;1273;-68
2023/12/26 03:36:58;;;;;;;;;;;17.70;66.30;;;;;;5091884;28;1526;-68
2023/12/26 03:39:24;;;;;;;;;;;17.70;66.30;;;;;;5059895;28;1344;-68
2023/12/26 03:41:49;;;;;;;;;;;17.70;66.30;;;;;;5055806;28;1307;-68
2023/12/26 03:44:15;;;;;;;;;;;17.70;66.30;;;;;;5059197;28;1558;-67
2023/12/26 03:46:41;;;;;;;;;;;17.70;66.30;;;;;;5060536;28;1987;-68
2023/12/26 03:49:07;;;;;;;;;;;17.70;66.30;;;;;;5059490;28;894;-68
2023/12/26 03:51:32;;;;;;;;;;;17.70;66.30;;;;;;5077689;28;1466;-70
2023/12/26 03:53:58;;;;;;;;;;;17.70;66.40;;;;;;5060420;28;1604;-69
2023/12/26 03:56:23;;;;;;;;;;;17.70;66.40;;;;;;5057675;28;1554;-68
2023/12/26 03:58:49;;;;;;;;;;;17.70;66.40;;;;;;5061422;28;1434;-69
2023/12/26 04:01:14;;;;;;;;;;;17.70;66.40;;;;;;5056211;28;1443;-69
2023/12/26 04:03:40;;;;;;;;;;;17.70;66.40;;;;;;5056800;28;1335;-68
2023/12/26 04:06:05;;;;;;;;;;;17.70;66.40;;;;;;5059065;28;1910;-68
2023/12/26 04:08:31;;;;;;;;;;;17.70;66.40;;;;;;5060259;28;1462;-69
2023/12/26 04:10:56;;;;;;;;;;;17.70;66.40;;;;;;5059805;28;1519;-70
2023/12/26 04:13:22;;;;;;;;;;;17.70;66.40;;;;;;5058898;28;1219;-69
2023/12/26 04:15:47;;;;;;;;;;;17.70;66.40;;;;;;5057222;28;1456;-69
2023/12/26 04:18:13;;;;;;;;;;;17.70;66.40;;;;;;5055196;28;1475;-69
2023/12/26 04:20:39;;;;;;;;;;;17.70;66.40;;;;;;5088733;28;1337;-69
2023/12/26 04:23:04;;;;;;;;;;;17.70;66.40;;;;;;5059155;28;1437;-68
2023/12/26 04:25:30;;;;;;;;;;;17.70;66.40;;;;;;5058698;28;1977;-69
2023/12/26 04:27:55;;;;;;;;;;;17.70;66.40;;;;;;5062734;28;1718;-68
2023/12/26 04:30:21;;;;;;;;;;;17.70;66.40;;;;;;5057076;28;1212;-68
2023/12/26 04:32:46;;;;;;;;;;;17.70;66.40;;;;;;5060518;28;1210;-69
2023/12/26 04:35:12;;;;;;;;;;;17.70;66.40;;;;;;5056944;28;1143;-68
2023/12/26 04:37:37;;;;;;;;;;;17.70;66.50;;;;;;5058848;28;1589;-69
2023/12/26 04:40:03;;;;;;;;;;;17.70;66.40;;;;;;5056121;28;1726;-68
2023/12/26 04:42:28;;;;;;;;;;;17.70;66.40;;;;;;5061023;28;1463;-69
2023/12/26 04:44:54;;;;;;;;;;;17.70;66.40;;;;;;5059127;28;1957;-69
2023/12/26 04:47:19;;;;;;;;;;;17.70;66.40;;;;;;5057579;28;1441;-70
2023/12/26 04:49:45;;;;;;;;;;;17.70;66.40;;;;;;5061232;28;1496;-69
2023/12/26 04:52:10;;;;;;;;;;;17.70;66.40;;;;;;5057004;28;1505;-68
2023/12/26 04:54:36;;;;;;;;;;;17.70;66.40;;;;;;5056724;28;1302;-69
2023/12/26 04:57:01;;;;;;;;;;;17.70;66.40;;;;;;5058669;28;1615;-68
2023/12/26 04:59:27;;;;;;;;;;;17.70;66.50;;;;;;5058825;28;954;-69
2023/12/26 05:01:52;;;;;;;;;;;17.70;66.50;;;;;;5056285;28;1331;-70
2023/12/26 05:04:18;;;;;;;;;;;17.70;66.50;;;;;;5057461;28;971;-69
2023/12/26 05:06:43;;;;;;;;;;;17.70;66.50;;;;;;5059612;28;1906;-70
2023/12/26 05:09:09;;;;;;;;;;;17.70;66.40;;;;;;5057911;28;1563;-70
2023/12/26 05:11:34;;;;;;;;;;;17.70;66.50;;;;;;5055748;28;1666;-70
2023/12/26 05:14:00;;;;;;;;;;;17.70;66.40;;;;;;5059690;28;1601;-71
2023/12/26 05:16:25;;;;;;;;;;;17.70;66.40;;;;;;5063217;28;1325;-70
2023/12/26 05:18:51;;;;;;;;;;;17.80;66.40;;;;;;5061522;28;1523;-71
2023/12/26 05:21:20;;;;;;;;;;;17.70;66.30;;;;;;5058796;28;1459;-70
2023/12/26 05:23:46;;;;;;;;;;;17.80;66.30;;;;;;5092174;28;1505;-70
2023/12/26 05:26:12;;;;;;;;;;;17.80;66.10;;;;;;5077739;28;1902;-70
2023/12/26 05:28:38;;;;;;;;;;;17.80;66.10;;;;;;5078795;28;1361;-70
2023/12/26 05:31:04;;;;;;;;;;;17.80;66.00;;;;;;5062334;28;1532;-70
2023/12/26 05:33:29;;;;;;;;;;;17.90;66.00;;;;;;5061550;28;1586;-70
2023/12/26 05:35:55;;;;;;;;;;;17.90;65.90;;;;;;5093316;28;1143;-70
2023/12/26 05:38:21;;;;;;;;;;;17.90;65.80;;;;;;5061823;28;1435;-70
2023/12/26 05:40:46;;;;;;;;;;;17.90;65.80;;;;;;5060909;28;1316;-70
2023/12/26 05:43:12;;;;;;;;;;;17.90;65.60;;;;;;5060518;28;1330;-70
2023/12/26 05:45:37;;;;;;;;;;;17.90;65.60;;;;;;5060294;28;1894;-70
2023/12/26 05:48:04;;;;;;;;;;;18.00;65.60;;;;;;5059897;28;1497;-71
2023/12/26 05:50:30;;;;;;;;;;;18.00;65.50;;;;;;5060989;28;1715;-70
2023/12/26 05:52:55;;;;;;;;;;;18.00;65.40;;;;;;5060122;28;1221;-69
2023/12/26 05:55:21;;;;;;;;;;;18.00;65.40;;;;;;5061525;28;1538;-70
2023/12/26 05:57:46;;;;;;;;;;;18.00;65.30;;;;;;5059375;28;1390;-70
2023/12/26 06:00:12;;;;;;;;;;;18.00;65.30;;;;;;5059820;28;1361;-67
2023/12/26 06:02:37;;;;;;;;;;;18.00;65.20;;;;;;5092648;28;1474;-71
2023/12/26 06:05:03;;;;;;;;;;;18.10;65.20;;;;;;5059359;28;1914;-70
2023/12/26 06:07:28;;;;;;;;;;;18.10;65.20;;;;;;5060589;28;1276;-71
2023/12/26 06:09:54;;;;;;;;;;;18.10;65.10;;;;;;5060610;28;1436;-70
2023/12/26 06:12:19;;;;;;;;;;;18.10;65.10;;;;;;5061324;28;1587;-71
2023/12/26 06:14:45;;;;;;;;;;;18.10;65.00;;;;;;5062266;28;1452;-71
2023/12/26 06:17:10;;;;;;;;;;;18.10;65.00;;;;;;5057860;28;1320;-70
2023/12/26 06:19:36;;;;;;;;;;;18.10;65.00;;;;;;5060485;28;1790;-70
2023/12/26 06:22:01;;;;;;;;;;;18.10;64.90;;;;;;5058744;28;1445;-70
2023/12/26 06:24:27;;;;;;;;;;;18.10;64.90;;;;;;5060038;28;1308;-70
2023/12/26 06:26:52;;;;;;;;;;;18.20;64.90;;;;;;5058596;28;1890;-70
2023/12/26 06:29:18;;;;;;;;;;;18.20;64.90;;;;;;5093657;28;1372;-70
2023/12/26 06:31:43;;;;;;;;;;;18.20;64.80;;;;;;5059145;28;1455;-70
2023/12/26 06:34:09;;;;;;;;;;;18.20;64.80;;;;;;5059396;28;1507;-69
2023/12/26 06:36:34;;;;;;;;;;;18.20;64.70;;;;;;5059311;28;1510;-70
2023/12/26 06:39:03;;;;;;;;;;;18.20;64.70;;;;;;5059556;28;1397;-70
2023/12/26 06:41:29;;;;;;;;;;;18.20;64.70;;;;;;5061313;28;1637;-69
2023/12/26 06:43:54;;;;;;;;;;;18.20;64.70;;;;;;5093797;28;1366;-70
2023/12/26 06:46:21;;;;;;;;;;;18.20;64.70;;;;;;5061748;28;1894;-70
2023/12/26 06:48:47;;;;;;;;;;;18.20;64.70;;;;;;5060777;28;1461;-69
2023/12/26 06:51:15;;;;;;;;;;;18.20;64.70;;;;;;5055207;28;1723;-70
2023/12/26 06:53:41;;;;;;;;;;;18.20;64.60;;;;;;5059373;28;1295;-70
2023/12/26 06:56:07;;;;;;;;;;;18.20;64.60;;;;;;5061569;28;950;-71
2023/12/26 06:58:34;;;;;;;;;;;18.20;64.60;;;;;;5058914;28;1308;-69
2023/12/26 07:01:00;;;;;;;;;;;18.20;64.70;;;;;;5058912;28;1430;-69
2023/12/26 07:03:25;;;;;;;;;;;18.20;64.70;;;;;;5060662;28;930;-69
2023/12/26 07:05:50;;;;;;;;;;;18.20;64.80;;;;;;5056677;28;2033;-71
2023/12/26 07:08:16;;;;;;;;;;;18.20;64.80;;;;;;5092324;28;1376;-69
2023/12/26 07:10:42;;;;;;;;;;;18.20;64.70;;;;;;5055095;28;1830;-70
2023/12/26 07:13:07;;;;;;;;;;;18.20;64.80;;;;;;5052188;28;1685;-70
2023/12/26 07:15:33;;;;;;;;;;;18.10;64.70;;;;;;5058792;28;1464;-70
2023/12/26 07:17:58;;;;;;;;;;;18.10;64.70;;;;;;5056338;28;1596;-70
2023/12/26 07:20:23;;;;;;;;;;;18.20;64.80;;;;;;5063263;28;1330;-68
2023/12/26 07:22:49;;;;;;;;;;;18.10;64.80;;;;;;5060259;28;1226;-72
2023/12/26 07:25:14;;;;;;;;;;;18.20;64.90;;;;;;5061154;28;1890;-68
2023/12/26 07:27:40;;;;;;;;;;;18.20;65.00;;;;;;5053852;28;1360;-68
2023/12/26 07:30:06;;;;;;;;;;;18.10;64.90;;;;;;5057663;28;1426;-68
2023/12/26 07:32:31;;;;;;;;;;;18.10;64.90;;;;;;5073199;28;1394;-70
2023/12/26 07:34:57;;;;;;;;;;;18.10;64.90;;;;;;5059085;28;1335;-70
2023/12/26 07:37:22;;;;;;;;;;;18.10;65.00;;;;;;5056894;28;1140;-69
2023/12/26 07:39:48;;;;;;;;;;;18.10;65.00;;;;;;5060023;28;1266;-71
2023/12/26 07:42:13;;;;;;;;;;;18.10;65.00;;;;;;5060208;28;1775;-70
2023/12/26 07:44:38;;;;;;;;;;;18.10;65.00;;;;;;5062394;28;1207;-70
2023/12/26 07:47:04;;;;;;;;;;;18.10;65.10;;;;;;5059664;28;1957;-70
2023/12/26 07:49:29;;;;;;;;;;;18.10;65.10;;;;;;5058983;28;1256;-69
2023/12/26 07:51:55;;;;;;;;;;;18.10;65.10;;;;;;5093961;28;1509;-70
2023/12/26 07:54:20;;;;;;;;;;;18.10;65.10;;;;;;5059472;28;1339;-68
2023/12/26 07:56:46;;;;;;;;;;;18.10;65.10;;;;;;5058321;28;1874;-69
2023/12/26 07:59:12;;;;;;;;;;;18.10;65.20;;;;;;5091698;28;850;-69
2023/12/26 08:01:38;;;;;;;;;;;18.10;65.20;;;;;;5057473;28;2096;-69
2023/12/26 08:04:03;;;;;;;;;;;18.00;65.10;;;;;;5059236;28;2010;-69
2023/12/26 08:06:30;;;;;;;;;;;18.00;65.10;;;;;;5056290;28;1953;-68
2023/12/26 08:08:55;;;;;;;;;;;18.00;65.10;;;;;;5055200;28;1184;-69
2023/12/26 08:11:21;;;;;;;;;;;18.00;65.10;;;;;;5055028;28;1508;-68
2023/12/26 08:13:46;;;;;;;;;;;18.00;65.10;;;;;;5056565;28;1239;-69
2023/12/26 08:16:12;;;;;;;;;;;18.00;65.20;;;;;;5056414;28;1171;-69
2023/12/26 08:18:37;;;;;;;;;;;18.00;65.20;;;;;;5056989;28;2152;-68
2023/12/26 08:21:04;;;;;;;;;;;18.10;65.20;;;;;;5054671;28;1447;-69
2023/12/26 08:23:29;;;;;;;;;;;18.10;65.20;;;;;;5057852;28;1227;-69
2023/12/26 08:25:55;;;;;;;;;;;18.10;65.20;;;;;;5056499;28;1898;-69
2023/12/26 08:28:20;;;;;;;;;;;18.10;65.30;;;;;;5056673;28;1251;-69
2023/12/26 08:30:46;;;;;;;;;;;18.10;65.30;;;;;;5056919;28;1348;-70
2023/12/26 08:33:11;;;;;;;;;;;18.10;65.20;;;;;;5056900;28;1460;-70
2023/12/26 08:35:37;;;;;;;;;;;18.00;65.20;;;;;;5058745;28;1485;-69
2023/12/26 08:38:03;;;;;;;;;;;18.10;65.20;;;;;;5060677;28;1371;-69
2023/12/26 08:40:28;;;;;;;;;;;18.00;65.20;;;;;;5057088;28;1538;-69
2023/12/26 08:42:54;;;;;;;;;;;18.00;65.20;;;;;;5089658;28;1526;-70
2023/12/26 08:45:19;;;;;;;;;;;18.00;65.20;;;;;;5058761;28;1902;-70
2023/12/26 08:47:45;;;;;;;;;;;18.00;65.20;;;;;;5057685;28;1413;-69
2023/12/26 08:50:11;;;;;;;;;;;18.00;65.20;;;;;;5059612;28;1451;-69
2023/12/26 08:52:36;;;;;;;;;;;18.00;65.20;;;;;;5063988;28;1227;-69
2023/12/26 08:55:02;;;;;;;;;;;18.00;65.20;;;;;;5062676;28;1290;-69
2023/12/26 08:57:27;;;;;;;;;;;18.10;65.30;;;;;;5057898;28;1318;-69
2023/12/26 08:59:53;;;;;;;;;;;18.00;65.20;;;;;;5094587;28;1679;-69
2023/12/26 09:02:18;;;;;;;;;;;18.10;65.20;;;;;;5060904;28;1532;-69
2023/12/26 09:04:45;;;;;;;;;;;18.10;65.20;;;;;;5092797;28;1307;-70
2023/12/26 09:07:11;;;;;;;;;;;18.10;65.10;;;;;;5061998;28;1906;-69
2023/12/26 09:09:37;;;;;;;;;;;18.10;65.10;;;;;;5059586;28;1251;-69
2023/12/26 09:12:02;;;;;;;;;;;18.10;65.10;;;;;;5062151;28;1663;-68
2023/12/26 09:14:28;;;;;;;;;;;18.10;65.00;;;;;;5058665;28;1259;-68
2023/12/26 09:16:54;;;;;;;;;;;18.20;65.00;;;;;;5092586;28;1589;-69
2023/12/26 09:19:20;;;;;;;;;;;18.20;65.00;;;;;;5060602;28;1317;-68
2023/12/26 09:21:46;;;;;;;;;;;18.10;64.90;;;;;;5064337;28;1338;-68
2023/12/26 09:24:11;;;;;;;;;;;18.20;65.00;;;;;;5059029;28;1334;-68
2023/12/26 09:26:37;;;;;;;;;;;18.10;64.90;;;;;;5063919;28;1898;-70
2023/12/26 09:29:02;;;;;;;;;;;18.10;64.90;;;;;;5060203;28;1609;-70
2023/12/26 09:31:28;;;;;;;;;;;18.10;65.70;;;;;;5060800;28;1394;-70
2023/12/26 09:33:53;;;;;;;;;;;18.20;65.00;;;;;;5061746;28;1195;-70
2023/12/26 09:36:18;;;;;;;;;;;18.10;65.00;;;;;;5059267;28;1620;-70
2023/12/26 09:38:44;;;;;;;;;;;18.20;65.00;;;;;;5060685;28;1615;-70
2023/12/26 09:41:10;;;;;;;;;;;18.10;64.90;;;;;;5062761;28;1442;-69
2023/12/26 09:43:36;;;;;;;;;;;18.10;65.00;;;;;;5063768;28;1271;-69
2023/12/26 09:46:03;;;;;;;;;;;18.10;65.00;;;;;;5090329;28;1962;-71
2023/12/26 09:48:33;;;;;;;;;;;18.10;65.00;;;;;;5060490;28;1254;-70
2023/12/26 09:50:59;;;;;;;;;;;18.10;65.00;;;;;;5061174;28;1268;-69
2023/12/26 09:53:24;;;;;;;;;;;18.10;65.10;;;;;;5091218;28;1488;-70
2023/12/26 09:55:50;;;;;;;;;;;18.10;65.10;;;;;;5093220;28;1378;-70
2023/12/26 09:58:15;;;;;;;;;;;18.10;65.10;;;;;;5059703;28;1365;-71
2023/12/26 10:00:41;;;;;;;;;;;18.10;65.10;;;;;;5060490;28;1263;-70
2023/12/26 10:03:06;;;;;;;;;;;18.10;65.10;;;;;;5094055;28;1356;-71
2023/12/26 10:05:32;;;;;;;;;;;18.10;65.00;;;;;;5060636;28;1909;-70
2023/12/26 10:07:57;;;;;;;;;;;18.10;65.00;;;;;;5059584;28;1560;-71
2023/12/26 10:10:23;;;;;;;;;;;18.20;65.00;;;;;;5062635;28;1604;-71
2023/12/26 10:12:49;;;;;;;;;;;18.20;65.00;;;;;;5061111;28;1517;-71
2023/12/26 10:15:14;;;;;;;;;;;18.10;64.90;;;;;;5093173;28;1281;-71
2023/12/26 10:17:40;;;;;;;;;;;18.20;64.90;;;;;;5047200;28;1506;-71
2023/12/26 10:20:06;;;;;;;;;;;18.20;64.80;;;;;;5062154;28;1543;-71
2023/12/26 10:22:31;;;;;;;;;;;18.20;64.80;;;;;;5060677;28;1517;-70
2023/12/26 10:25:00;;;;;;;;;;;18.20;64.80;;;;;;5059739;28;1495;-70
2023/12/26 10:27:25;;;;;;;;;;;18.20;64.80;;;;;;5067740;28;1902;-70
2023/12/26 10:29:51;;;;;;;;;;;18.20;64.70;;;;;;5056188;28;1425;-70
2023/12/26 10:32:17;;;;;;;;;;;18.20;64.70;;;;;;5060134;28;1597;-70
2023/12/26 10:34:42;;;;;;;;;;;18.20;64.80;;;;;;5044548;28;1676;-70
2023/12/26 10:37:09;;;;;;;;;;;18.20;64.80;;;;;;5091332;28;1305;-71
2023/12/26 10:39:35;;;;;;;;;;;18.20;64.80;;;;;;5059918;28;1371;-70
2023/12/26 10:42:00;;;;;;;;;;;18.20;64.80;;;;;;5060663;28;1592;-70
2023/12/26 10:44:26;;;;;;;;;;;18.20;64.80;;;;;;5092310;28;1263;-70
2023/12/26 10:47:11;;;;;;;;;;;18.20;64.90;;;;;;5086439;28;1910;-70
2023/12/26 10:49:40;;;;;;;;;;;18.20;65.60;;;;;;5060989;28;1523;-70
2023/12/26 10:52:07;;;;;;;;;;;18.20;64.90;;;;;;5059483;28;1695;-70
2023/12/26 10:54:32;;;;;;;;;;;18.10;64.80;;;;;;5076822;28;1437;-70
2023/12/26 10:56:58;;;;;;;;;;;18.10;64.90;;;;;;5093074;28;1559;-70
2023/12/26 13:53:42;;;;;;;;;;;18.20;64.60;;;;;;5062267;28;1417;-72
2023/12/26 13:56:26;;;;;;;;;;;18.30;64.70;;;;;;5061472;28;1254;-72
2023/12/26 13:59:10;;;;;;;;;;;18.20;64.70;;;;;;5061733;28;1216;-72
2023/12/26 14:01:54;;;;;;;;;;;18.20;64.70;;;;;;5060512;28;1460;-72
2023/12/26 14:04:38;;;;;;;;;;;18.30;64.80;;;;;;5060353;28;1360;-72
2023/12/26 14:07:23;;;;;;;;;;;18.20;64.80;;;;;;5077600;28;1972;-71
2023/12/26 14:10:07;;;;;;;;;;;18.20;64.80;;;;;;5062103;28;1427;-71
2023/12/26 14:12:51;;;;;;;;;;;18.20;64.80;;;;;;5059958;28;1348;-71
2023/12/26 14:15:35;;;;;;;;;;;18.20;64.80;;;;;;5059350;28;1527;-72
2023/12/26 14:18:19;;;;;;;;;;;18.20;64.90;;;;;;5068605;28;1413;-72
2023/12/26 14:21:04;;;;;;;;;;;18.20;64.90;;;;;;5057878;28;1337;-71
2023/12/26 14:23:49;;;;;;;;;;;18.20;64.90;;;;;;5058208;28;2445;-70
2023/12/26 14:26:34;;;;;;;;;;;18.20;65.00;;;;;;5057082;28;1898;-71
2023/12/26 14:29:19;;;;;;;;;;;18.20;65.00;;;;;;5061085;28;1458;-71
2023/12/26 14:32:03;;;;;;;;;;;18.20;65.00;;;;;;5058612;28;1312;-71
2023/12/26 14:34:47;;;;;;;;;;;18.20;65.00;;;;;;5060593;28;1318;-71
2023/12/26 14:37:31;;;;;;;;;;;18.10;65.00;;;;;;5057625;28;1227;-70
2023/12/26 14:40:15;;;;;;;;;;;18.10;65.00;;;;;;5060608;28;1235;-71
2023/12/26 14:42:59;;;;;;;;;;;18.20;65.10;;;;;;5057081;28;1319;-71
2023/12/26 14:45:43;;;;;;;;;;;18.10;65.10;;;;;;5067616;28;1914;-72
2023/12/26 14:48:27;;;;;;;;;;;18.10;65.10;;;;;;5061765;28;1120;-72
2023/12/26 14:51:11;;;;;;;;;;;18.10;65.20;;;;;;5058293;28;1401;-69
2023/12/26 14:53:55;;;;;;;;;;;18.10;65.10;;;;;;5060771;28;1545;-71
2023/12/26 14:56:39;;;;;;;;;;;18.10;65.20;;;;;;5059041;28;1352;-71
2023/12/26 14:59:23;;;;;;;;;;;18.10;65.20;;;;;;5058792;28;1462;-71
2023/12/26 15:01:59;;;;;;;;;;;18.10;65.20;;;;;;5043341;28;4491;-71
2023/12/26 15:04:26;;;;;;;;;;;18.10;65.30;;;;;;5061473;28;1486;-71
2023/12/26 15:06:52;;;;;;;;;;;18.10;65.30;;;;;;5092093;28;1915;-72
2023/12/26 15:09:17;;;;;;;;;;;18.00;65.30;;;;;;5057610;28;1540;-72
2023/12/26 15:11:43;;;;;;;;;;;18.10;65.40;;;;;;5057409;28;1484;-68
2023/12/26 15:14:12;;;;;;;;;;;18.10;65.70;;;;;;5059006;28;1673;-72
2023/12/26 15:16:37;;;;;;;;;;;18.10;65.40;;;;;;5089248;28;1467;-71
2023/12/26 15:19:03;;;;;;;;;;;18.00;65.40;;;;;;5059417;28;1443;-71
2023/12/26 15:21:28;;;;;;;;;;;18.10;65.40;;;;;;5057232;28;1506;-72
2023/12/26 15:23:54;;;;;;;;;;;18.10;65.40;;;;;;5049375;28;4579;-72
2023/12/26 15:26:21;;;;;;;;;;;18.00;65.40;;;;;;5057291;28;1965;-72
2023/12/26 15:28:47;;;;;;;;;;;18.00;65.40;;;;;;5059572;28;1589;-72
2023/12/26 15:31:15;;;;;;;;;;;18.00;65.40;;;;;;5056763;28;1323;-71
2023/12/26 15:33:42;;;;;;;;;;;18.00;65.40;;;;;;5059350;28;1160;-72
2023/12/26 15:36:20;;;;;;;;;;;18.00;65.50;;;;;;5055516;28;1337;-72
2023/12/26 15:38:46;;;;;;;;;;;18.00;65.50;;;;;;5090852;28;1373;-72
2023/12/26 15:41:11;;;;;;;;;;;18.00;65.50;;;;;;5055004;28;1779;-72
2023/12/26 15:43:37;;;;;;;;;;;18.00;65.50;;;;;;5091636;28;1589;-71
2023/12/26 15:46:03;;;;;;;;;;;18.00;65.50;;;;;;5057188;28;1969;-71
2023/12/26 15:48:29;;;;;;;;;;;18.00;65.50;;;;;;5057856;28;1292;-71
2023/12/26 15:50:54;;;;;;;;;;;18.00;65.50;;;;;;5090567;28;1498;-71
2023/12/26 15:53:20;;;;;;;;;;;18.00;65.60;;;;;;5056765;28;1470;-71
2023/12/26 15:55:45;;;;;;;;;;;18.00;65.60;;;;;;5057828;28;1425;-72
2023/12/26 15:58:12;;;;;;;;;;;18.00;65.60;;;;;;5058737;28;1448;-71
2023/12/26 16:00:41;;;;;;;;;;;18.00;65.70;;;;;;5056202;28;1480;-70
2023/12/26 16:03:06;;;;;;;;;;;18.00;65.70;;;;;;5060624;28;1427;-72
2023/12/26 16:05:34;;;;;;;;;;;18.00;65.70;;;;;;5090891;28;1957;-72
2023/12/26 16:08:02;;;;;;;;;;;18.00;65.70;;;;;;5044146;28;1539;-70
2023/12/26 16:10:27;;;;;;;;;;;18.00;65.70;;;;;;5057010;28;1605;-73
2023/12/26 16:12:53;;;;;;;;;;;18.00;65.70;;;;;;5059077;28;1380;-72
2023/12/26 16:15:20;;;;;;;;;;;18.00;65.70;;;;;;5061545;28;1362;-70
2023/12/26 16:17:45;;;;;;;;;;;18.00;65.70;;;;;;5058243;28;1527;-72
2023/12/26 16:20:11;;;;;;;;;;;18.00;65.80;;;;;;5058616;28;1335;-72
2023/12/26 16:22:36;;;;;;;;;;;18.00;65.80;;;;;;5059728;28;1519;-71
2023/12/26 16:25:02;;;;;;;;;;;18.00;65.80;;;;;;5055496;28;1338;-73
2023/12/26 16:27:28;;;;;;;;;;;18.00;65.80;;;;;;5058750;28;1935;-73
2023/12/26 16:29:53;;;;;;;;;;;18.00;65.80;;;;;;5056854;28;1464;-72
2023/12/26 16:32:19;;;;;;;;;;;18.00;65.80;;;;;;5061475;28;1456;-72
2023/12/26 16:34:44;;;;;;;;;;;17.90;65.80;;;;;;5060223;28;1461;-72
2023/12/26 16:37:10;;;;;;;;;;;17.90;65.80;;;;;;5056931;28;1339;-71
2023/12/26 16:39:35;;;;;;;;;;;17.90;65.80;;;;;;5057973;28;1381;-71
2023/12/26 16:42:07;;;;;;;;;;;17.90;65.80;;;;;;5058060;28;1580;-70
2023/12/26 16:44:40;;;;;;;;;;;17.90;65.80;;;;;;5057657;28;1332;-72
2023/12/26 16:47:05;;;;;;;;;;;17.90;65.90;;;;;;5057462;28;1906;-73
2023/12/26 16:49:31;;;;;;;;;;;17.90;65.80;;;;;;5056210;28;1323;-69
2023/12/26 16:51:56;;;;;;;;;;;17.90;65.80;;;;;;5055990;28;1344;-72
2023/12/26 16:54:22;;;;;;;;;;;17.90;65.90;;;;;;5056188;28;1709;-72
2023/12/26 16:56:47;;;;;;;;;;;17.90;65.90;;;;;;5057436;28;1298;-72
2023/12/26 16:59:13;;;;;;;;;;;17.90;65.90;;;;;;5059056;28;1415;-73
2023/12/26 17:01:42;;;;;;;;;;;17.90;65.90;;;;;;5056819;28;1489;-73
2023/12/26 17:04:08;;;;;;;;;;;17.90;66.00;;;;;;5054762;28;1372;-73
2023/12/26 17:06:42;;;;;;;;;;;17.90;66.00;;;;;;5058597;28;1902;-73
2023/12/26 17:09:08;;;;;;;;;;;17.90;66.00;;;;;;5059182;28;1625;-69
2023/12/26 17:11:34;;;;;;;;;;;17.90;66.00;;;;;;5060766;28;1421;-71
2023/12/26 17:13:59;;;;;;;;;;;17.90;66.00;;;;;;5091784;28;1490;-71
2023/12/26 17:16:25;;;;;;;;;;;17.90;66.00;;;;;;5062187;28;1303;-70
2023/12/26 17:18:50;;;;;;;;;;;17.90;66.00;;;;;;5058340;28;1142;-73
2023/12/26 17:21:16;;;;;;;;;;;17.90;66.00;;;;;;5062296;28;1366;-70
2023/12/26 17:23:41;;;;;;;;;;;17.90;66.10;;;;;;5060054;28;1745;-70